createdAt,value
2019-04-20T00:22:11.977Z,33.83
2019-04-20T00:52:31.547Z,40.25
2019-04-20T01:22:25.630Z,46.60
2019-04-20T01:52:43.987Z,40.10
2019-04-20T02:22:52.877Z,44.73
2019-04-20T02:53:32.484Z,36.68
2019-04-20T03:23:26.817Z,41.63
2019-04-20T03:53:13.017Z,52.98
2019-04-20T04:23:16.713Z,44.27
2019-04-20T04:53:12.059Z,47.58
2019-04-20T05:23:28.287Z,33.00
2019-04-20T05:53:44.360Z,34.40
2019-04-20T06:23:53.433Z,36.95
2019-04-20T06:53:51.351Z,32.15
2019-04-20T07:24:04.985Z,24.85
2019-04-20T07:54:14.799Z,22.37
2019-04-20T08:24:08.599Z,19.37
2019-04-20T08:54:14.196Z,15.53
2019-04-20T09:24:30.536Z,12.95
2019-04-20T09:54:29.991Z,12.95
2019-04-20T10:24:12.712Z,10.45
2019-04-20T10:54:16.407Z,12.70
2019-04-20T11:24:20.496Z,10.95
2019-04-20T11:54:26.427Z,13.00
2019-04-20T12:24:29.404Z,6.08
2019-04-20T12:54:36.508Z,9.50
2019-04-20T13:24:41.021Z,11.28
2019-04-20T13:54:47.456Z,7.03
2019-04-20T14:24:53.245Z,9.15
2019-04-20T14:54:57.474Z,11.93
2019-04-20T15:25:03.816Z,7.05
2019-04-20T15:55:15.765Z,6.37
2019-04-20T16:25:14.225Z,4.25
2019-04-20T16:55:18.738Z,5.08
2019-04-20T17:25:25.781Z,5.85
2019-04-20T17:55:37.000Z,6.28
2019-04-20T18:26:01.518Z,13.40
2019-04-20T18:55:46.819Z,14.93
2019-04-20T19:25:47.731Z,14.40
2019-04-20T19:56:04.077Z,16.52
2019-04-20T20:25:58.844Z,18.90
2019-04-20T20:56:12.014Z,20.35
2019-04-20T21:26:12.869Z,22.37
2019-04-20T21:56:12.253Z,14.65
2019-04-20T22:26:29.686Z,17.17
2019-04-20T22:56:39.477Z,22.67
2019-04-20T23:26:35.972Z,22.87
2019-04-20T23:56:35.432Z,20.10
